Terminal Aerodrome Forecast
Issued by NWS Upton, NY

Home | Current Version | Previous Version | Text Only | Print | Product List | Glossary On
Versions: 1 2 3 4 5 6 7 8 9 10 11 12 13 14 15 16 17 18 19 20 21 22 23 24 25 26 27 28 29
000
FTUS41 KOKX 301346 AAD
TAFBDR
TAF AMD
KBDR 301346Z 3014/3112 VRB06KT 2SM -SHRA BR OVC002
     FM301500 19006KT 4SM BR VCSH SCT002 OVC007
     FM301700 17006KT P6SM SCT007 BKN050
      TEMPO 3017/3018 4SM -SHRA OVC025
     FM302100 19008KT P6SM VCSH BKN040
     FM310100 20007KT P6SM VCSH BKN040
     FM310300 23004KT 4SM BR BKN040=

USA.gov is the U.S. government's official web portal to all federal, state and local government web resources and services.